createdAt,value
2023-05-11T00:02:07.954Z,99125.83
2023-05-11T00:04:36.434Z,99124.23
2023-05-11T00:07:03.610Z,99126.11
2023-05-11T00:09:31.035Z,99128.17
2023-05-11T00:11:58.190Z,99132.14
2023-05-11T00:14:25.317Z,99128.77
2023-05-11T00:16:52.315Z,99134.80
2023-05-11T00:19:19.268Z,99135.38
2023-05-11T00:21:46.735Z,99137.92
2023-05-11T00:24:13.855Z,99135.63
2023-05-11T00:26:41.070Z,99138.61
2023-05-11T00:29:08.072Z,99134.05
2023-05-11T00:31:35.407Z,99129.66
2023-05-11T00:34:02.649Z,99130.23
2023-05-11T00:36:29.882Z,99131.80
2023-05-11T00:38:56.868Z,99132.98
2023-05-11T00:41:23.941Z,99129.42
2023-05-11T00:43:51.064Z,99129.70
2023-05-11T00:46:18.133Z,99125.66
2023-05-11T00:48:45.358Z,99127.48
2023-05-11T00:51:13.511Z,99127.43
2023-05-11T00:53:40.790Z,99131.09
2023-05-11T00:56:07.821Z,99133.70
2023-05-11T00:58:36.085Z,99137.08
2023-05-11T01:01:03.708Z,99133.10
2023-05-11T01:03:32.343Z,99134.67
2023-05-11T01:06:17.792Z,99135.73
2023-05-11T01:08:53.061Z,99137.07
2023-05-11T01:11:28.980Z,99136.83
2023-05-11T01:13:59.781Z,99135.27
2023-05-11T01:16:26.923Z,99137.02
2023-05-11T01:19:02.474Z,99136.98
2023-05-11T01:21:34.301Z,99143.11
2023-05-11T01:24:34.329Z,99138.13
2023-05-11T01:27:23.848Z,99140.73
2023-05-11T01:30:16.465Z,99134.65
2023-05-11T01:32:44.015Z,99138.00
2023-05-11T01:35:14.955Z,99135.45
2023-05-11T01:37:41.930Z,99129.73
2023-05-11T01:40:12.890Z,99129.92
2023-05-11T01:42:42.534Z,99129.33
2023-05-11T01:45:10.122Z,99131.80
2023-05-11T01:47:37.445Z,99129.69
2023-05-11T01:50:04.843Z,99132.77
2023-05-11T01:52:33.679Z,99133.95
2023-05-11T01:55:00.832Z,99131.09
2023-05-11T01:57:27.870Z,99133.39
2023-05-11T01:59:55.047Z,99129.60
2023-05-11T02:02:22.392Z,99128.02
2023-05-11T02:04:49.744Z,99130.83
2023-05-11T02:07:17.501Z,99130.67
2023-05-11T02:09:44.596Z,99128.16
2023-05-11T02:12:12.508Z,99131.08
2023-05-11T02:14:39.762Z,99132.79
2023-05-11T02:17:07.652Z,99129.95
2023-05-11T02:19:36.313Z,99134.11
2023-05-11T02:22:03.708Z,99139.94
2023-05-11T02:24:32.048Z,99144.67
2023-05-11T02:26:59.341Z,99147.70
2023-05-11T02:29:26.532Z,99132.25
2023-05-11T02:31:57.474Z,99137.64
2023-05-11T02:34:28.966Z,99141.52
2023-05-11T02:36:59.259Z,99141.69
2023-05-11T02:39:31.128Z,99139.76
2023-05-11T02:41:58.697Z,99140.94
2023-05-11T02:44:28.842Z,99143.51
2023-05-11T02:46:56.721Z,99142.58
2023-05-11T02:49:24.076Z,99143.58
2023-05-11T02:51:51.792Z,99137.54
2023-05-11T02:54:19.580Z,99140.13
2023-05-11T02:56:49.050Z,99144.80
2023-05-11T02:59:16.298Z,99144.45
2023-05-11T03:01:43.683Z,99146.42
2023-05-11T03:04:11.324Z,99150.06
2023-05-11T03:06:38.471Z,99149.35
2023-05-11T03:09:09.335Z,99144.59
2023-05-11T03:11:40.080Z,99149.42
2023-05-11T03:14:07.205Z,99146.05
2023-05-11T03:16:34.747Z,99144.27
2023-05-11T03:19:02.221Z,99142.33
2023-05-11T03:21:29.750Z,99143.21
2023-05-11T03:23:56.929Z,99148.06
2023-05-11T03:26:23.924Z,99148.71
2023-05-11T03:28:51.141Z,99147.66
2023-05-11T03:31:19.062Z,99145.70
2023-05-11T03:33:46.786Z,99145.23
2023-05-11T03:36:14.298Z,99151.05
2023-05-11T03:38:41.333Z,99151.16
2023-05-11T03:41:11.710Z,99147.39
2023-05-11T03:43:38.716Z,99150.90
2023-05-11T03:46:06.324Z,99151.20
2023-05-11T03:48:33.705Z,99151.41
2023-05-11T03:51:00.789Z,99151.56
2023-05-11T03:53:28.221Z,99151.67
2023-05-11T03:55:56.025Z,99150.98
2023-05-11T03:58:23.441Z,99147.59
2023-05-11T04:00:50.507Z,99151.36
2023-05-11T04:03:18.208Z,99157.11
2023-05-11T04:05:45.622Z,99159.34
2023-05-11T04:08:13.392Z,99161.15
2023-05-11T04:10:40.457Z,99166.95
2023-05-11T04:13:08.165Z,99165.94
2023-05-11T04:15:37.741Z,99164.12
2023-05-11T04:18:05.073Z,99169.13
2023-05-11T04:20:32.890Z,99172.23
2023-05-11T04:22:59.984Z,99170.80
2023-05-11T04:25:27.643Z,99171.92
2023-05-11T04:27:54.704Z,99176.46
2023-05-11T04:30:22.094Z,99177.92
2023-05-11T04:32:49.414Z,99179.66
2023-05-11T04:35:16.485Z,99179.21
2023-05-11T04:37:43.467Z,99178.01
2023-05-11T04:40:11.593Z,99175.55
2023-05-11T04:42:41.044Z,99171.42
2023-05-11T04:45:12.776Z,99171.52
2023-05-11T04:47:40.057Z,99176.45
2023-05-11T04:50:08.346Z,99179.05
2023-05-11T04:52:37.584Z,99176.81
2023-05-11T04:55:04.991Z,99174.08
2023-05-11T04:57:33.266Z,99175.17
2023-05-11T05:00:01.203Z,99170.88
2023-05-11T05:02:29.651Z,99172.30
2023-05-11T05:04:56.561Z,99171.65
2023-05-11T05:07:24.258Z,99174.50
2023-05-11T05:09:51.319Z,99170.06
2023-05-11T05:12:18.924Z,99175.07
2023-05-11T05:14:46.333Z,99173.55
2023-05-11T05:17:13.652Z,99174.63
2023-05-11T05:19:41.727Z,99178.96
2023-05-11T05:22:08.761Z,99179.49
2023-05-11T05:24:36.986Z,99173.84
2023-05-11T05:27:04.819Z,99176.61
2023-05-11T05:29:31.889Z,99180.38
2023-05-11T05:31:59.955Z,99176.71
2023-05-11T05:34:27.484Z,99174.06
2023-05-11T05:36:54.468Z,99174.41
2023-05-11T05:39:21.457Z,99170.80
2023-05-11T05:41:48.639Z,99171.03
2023-05-11T05:44:15.698Z,99172.87
2023-05-11T05:46:42.975Z,99171.88
2023-05-11T05:49:09.947Z,99170.46
2023-05-11T05:51:37.781Z,99170.41
2023-05-11T05:54:05.499Z,99168.28
2023-05-11T05:56:35.182Z,99169.11
2023-05-11T05:59:02.240Z,99169.48
2023-05-11T06:01:30.413Z,99167.41
2023-05-11T06:03:58.099Z,99167.29
2023-05-11T06:06:26.103Z,99167.99
2023-05-11T06:08:53.777Z,99167.43
2023-05-11T06:11:21.911Z,99163.98
2023-05-11T06:13:49.026Z,99165.98
2023-05-11T06:16:16.031Z,99161.97
2023-05-11T06:18:43.034Z,99158.83
2023-05-11T06:21:10.915Z,99160.95
2023-05-11T06:23:38.113Z,99162.38
2023-05-11T06:26:05.156Z,99161.17
2023-05-11T06:28:32.654Z,99163.43
2023-05-11T06:31:03.853Z,99163.95
2023-05-11T06:33:33.620Z,99156.54
2023-05-11T06:36:07.383Z,99157.59
2023-05-11T06:38:35.714Z,99149.10
2023-05-11T06:41:02.789Z,99150.67
2023-05-11T06:43:31.743Z,99154.56
2023-05-11T06:46:01.511Z,99151.13
2023-05-11T06:48:30.004Z,99154.27
2023-05-11T06:50:58.716Z,99156.86
2023-05-11T06:53:25.651Z,99159.62
2023-05-11T06:55:54.739Z,99159.70
2023-05-11T06:58:21.717Z,99159.64
2023-05-11T07:00:48.704Z,99156.44
2023-05-11T07:03:15.976Z,99160.13
2023-05-11T07:05:43.256Z,99160.30
2023-05-11T07:08:10.313Z,99163.63
2023-05-11T07:10:38.000Z,99165.80
2023-05-11T07:13:05.699Z,99165.87
2023-05-11T07:15:32.717Z,99158.92
2023-05-11T07:18:01.503Z,99163.08
2023-05-11T07:20:28.743Z,99154.65
2023-05-11T07:22:59.426Z,99156.38
2023-05-11T07:25:26.610Z,99154.23
2023-05-11T07:27:53.565Z,99157.11
2023-05-11T07:30:21.042Z,99155.77
2023-05-11T07:32:50.751Z,99156.52
2023-05-11T07:35:17.714Z,99157.13
2023-05-11T07:37:44.835Z,99162.73
2023-05-11T07:40:12.285Z,99158.96
2023-05-11T07:42:39.635Z,99158.55
2023-05-11T07:45:07.595Z,99148.83
2023-05-11T07:47:36.938Z,99150.72
2023-05-11T07:50:04.414Z,99146.98
2023-05-11T07:52:31.716Z,99151.50
2023-05-11T07:54:58.756Z,99150.07
2023-05-11T07:57:26.090Z,99155.41
2023-05-11T07:59:53.191Z,99148.17
2023-05-11T08:02:20.378Z,99149.27
2023-05-11T08:04:47.462Z,99142.34
2023-05-11T08:07:14.766Z,99146.45
2023-05-11T08:09:41.686Z,99141.92
2023-05-11T08:12:10.493Z,99142.84
2023-05-11T08:14:37.972Z,99143.62
2023-05-11T08:17:05.901Z,99139.75
2023-05-11T08:19:32.970Z,99140.20
2023-05-11T08:22:01.282Z,99143.42
2023-05-11T08:24:29.015Z,99145.83
2023-05-11T08:26:56.829Z,99135.98
2023-05-11T08:29:27.378Z,99141.98
2023-05-11T08:31:54.567Z,99137.13
2023-05-11T08:34:22.523Z,99132.98
2023-05-11T08:36:49.719Z,99135.55
2023-05-11T08:39:24.940Z,99132.06
2023-05-11T08:42:00.680Z,99129.30
2023-05-11T08:44:27.685Z,99130.59
2023-05-11T08:47:08.627Z,99133.21
2023-05-11T08:49:42.170Z,99135.52
2023-05-11T08:52:09.141Z,99136.19
2023-05-11T08:54:36.188Z,99132.42
2023-05-11T08:57:03.185Z,99131.16
2023-05-11T08:59:30.538Z,99128.94
2023-05-11T09:01:57.474Z,99132.45
2023-05-11T09:04:24.405Z,99129.30
2023-05-11T09:06:51.628Z,99129.68
2023-05-11T09:09:18.515Z,99131.11
2023-05-11T09:11:45.962Z,99133.29
2023-05-11T09:14:13.134Z,99129.90
2023-05-11T09:16:40.144Z,99125.14
2023-05-11T09:19:07.620Z,99128.41
2023-05-11T09:21:35.898Z,99130.48
2023-05-11T09:24:02.923Z,99133.95
2023-05-11T09:26:32.495Z,99134.94
2023-05-11T09:31:43.678Z,99125.72
2023-05-11T09:34:17.416Z,99129.75
2023-05-11T09:36:45.744Z,99122.99
2023-05-11T09:39:28.455Z,99122.23
2023-05-11T09:48:22.358Z,99120.86
2023-05-11T09:50:50.251Z,99112.36
2023-05-11T09:53:17.935Z,99119.12
2023-05-11T09:55:52.143Z,99110.10
2023-05-11T09:58:19.229Z,99103.19
2023-05-11T10:00:51.285Z,99098.64
2023-05-11T10:03:18.452Z,99103.34
2023-05-11T10:06:01.460Z,99102.26
2023-05-11T10:08:30.381Z,99102.08
2023-05-11T10:10:57.752Z,99096.30
2023-05-11T10:13:25.017Z,99090.98
2023-05-11T10:15:52.295Z,99093.23
2023-05-11T10:18:20.348Z,99094.42
2023-05-11T10:20:47.802Z,99089.03
2023-05-11T10:23:15.185Z,99090.36
2023-05-11T10:25:42.309Z,99090.73
2023-05-11T10:28:09.559Z,99088.55
2023-05-11T10:30:37.498Z,99088.06
2023-05-11T10:33:05.268Z,99082.73
2023-05-11T10:35:32.865Z,99084.02
2023-05-11T10:37:59.847Z,99080.42
2023-05-11T10:40:27.270Z,99079.83
2023-05-11T10:43:12.816Z,99082.50
2023-05-11T10:45:52.262Z,99076.95
2023-05-11T10:48:52.236Z,99073.02
2023-05-11T10:51:44.103Z,99076.36
2023-05-11T10:54:59.491Z,99077.98
2023-05-11T10:58:03.671Z,99076.08
2023-05-11T11:00:58.690Z,99079.20
2023-05-11T11:03:25.900Z,99075.34
2023-05-11T11:05:52.894Z,99075.92
2023-05-11T11:08:20.318Z,99079.36
2023-05-11T11:10:49.461Z,99071.25
2023-05-11T11:13:17.539Z,99070.34
2023-05-11T11:15:54.078Z,99072.41
2023-05-11T11:18:22.563Z,99079.31
2023-05-11T11:20:50.862Z,99076.44
2023-05-11T11:23:43.850Z,99075.19
2023-05-11T11:26:15.861Z,99080.23
2023-05-11T11:28:55.075Z,99072.31
2023-05-11T11:31:26.363Z,99069.70
2023-05-11T11:33:58.706Z,99070.63
2023-05-11T11:37:04.134Z,99061.77
2023-05-11T11:39:43.519Z,99060.36
2023-05-11T11:42:15.288Z,99060.44
2023-05-11T11:44:42.921Z,99063.66
2023-05-11T11:47:13.782Z,99058.48
2023-05-11T11:49:43.026Z,99056.35
2023-05-11T11:52:36.135Z,99049.95
2023-05-11T11:55:04.182Z,99055.14
2023-05-11T11:57:34.751Z,99056.48
2023-05-11T12:00:05.782Z,99055.40
2023-05-11T12:02:43.318Z,99051.13
2023-05-11T12:05:18.418Z,99050.29
2023-05-11T15:45:35.212Z,98988.38
2023-05-11T15:48:02.878Z,98983.51
2023-05-11T15:50:30.381Z,98988.11
2023-05-11T15:52:57.522Z,98989.46
2023-05-11T15:55:26.842Z,98990.51
2023-05-11T15:57:54.561Z,98989.80
2023-05-11T16:00:21.717Z,98992.10
2023-05-11T16:02:49.475Z,98993.11
2023-05-11T16:05:16.681Z,98991.56
2023-05-11T16:07:44.114Z,98992.65
2023-05-11T16:10:11.373Z,98987.34
2023-05-11T16:12:38.423Z,98989.78
2023-05-11T16:15:06.825Z,98989.82
2023-05-11T16:17:34.100Z,98987.94
2023-05-11T16:20:01.316Z,98989.63
2023-05-11T16:22:28.852Z,98990.24
2023-05-11T16:24:55.850Z,98990.39
2023-05-11T16:27:23.180Z,98994.65
2023-05-11T16:29:51.223Z,98994.88
2023-05-11T16:32:20.283Z,98996.77
2023-05-11T16:34:47.485Z,99001.77
2023-05-11T16:37:14.432Z,99001.91
2023-05-11T16:39:41.516Z,99005.77
2023-05-11T16:42:08.495Z,99000.81
2023-05-11T16:44:36.035Z,99006.77
2023-05-11T16:47:03.674Z,99006.52
2023-05-11T16:49:30.745Z,99005.45
2023-05-11T16:51:57.668Z,99003.64
2023-05-11T16:54:27.053Z,99004.63
2023-05-11T16:56:54.068Z,99001.91
2023-05-11T16:59:21.126Z,99005.00
2023-05-11T17:01:48.167Z,99004.46
2023-05-11T17:04:15.236Z,99005.10
2023-05-11T17:06:42.418Z,99005.66
2023-05-11T17:09:09.487Z,99010.69
2023-05-11T17:11:37.138Z,99009.14
2023-05-11T17:14:04.214Z,99009.21
2023-05-11T17:16:31.357Z,99014.51
2023-05-11T17:18:59.313Z,99011.04
2023-05-11T17:21:26.333Z,99013.00
2023-05-11T17:23:53.337Z,99015.59
2023-05-11T17:26:21.184Z,99016.98
2023-05-11T17:28:52.127Z,99016.41
2023-05-11T17:31:19.203Z,99020.11
2023-05-11T17:33:47.413Z,99016.98
2023-05-11T17:36:14.477Z,99015.59
2023-05-11T17:38:43.293Z,99022.20
2023-05-11T17:41:10.315Z,99024.23
2023-05-11T17:43:38.093Z,99024.55
2023-05-11T17:46:05.638Z,99031.54
2023-05-11T17:48:33.251Z,99035.38
2023-05-11T17:51:00.343Z,99040.52
2023-05-11T17:53:27.472Z,99038.42
2023-05-11T17:55:54.487Z,99042.52
2023-05-11T17:58:21.862Z,99043.21
2023-05-11T18:00:49.520Z,99046.05
2023-05-11T18:03:17.558Z,99047.54
2023-05-11T18:05:49.064Z,99048.88
2023-05-11T18:08:16.877Z,99052.36
2023-05-11T18:10:44.628Z,99054.05
2023-05-11T18:13:12.242Z,99056.64
2023-05-11T18:15:39.393Z,99058.66
2023-05-11T18:18:06.502Z,99068.73
2023-05-11T18:20:33.788Z,99071.37
2023-05-11T18:23:00.806Z,99077.42
2023-05-11T18:25:31.956Z,99079.20
2023-05-11T18:28:02.267Z,99079.48
2023-05-11T18:30:29.781Z,99082.62
2023-05-11T18:32:56.954Z,99080.80
2023-05-11T18:35:24.154Z,99084.88
2023-05-11T18:37:51.159Z,99088.84
2023-05-11T18:40:18.651Z,99093.59
2023-05-11T18:42:47.306Z,99093.71
2023-05-11T18:45:14.570Z,99096.61
2023-05-11T18:47:46.266Z,99096.85
2023-05-11T18:50:14.198Z,99099.63
2023-05-11T18:52:41.740Z,99098.81
2023-05-11T18:55:09.666Z,99103.15
2023-05-11T18:57:39.448Z,99104.52
2023-05-11T19:00:07.173Z,99106.48
2023-05-11T19:02:34.800Z,99109.88
2023-05-11T19:05:02.146Z,99110.93
2023-05-11T19:07:29.369Z,99113.41
2023-05-11T19:09:56.552Z,99117.86
2023-05-11T19:12:23.638Z,99120.86
2023-05-11T19:14:55.416Z,99122.94
2023-05-11T19:17:23.296Z,99124.99
2023-05-11T19:19:51.470Z,99122.14
2023-05-11T19:22:21.631Z,99121.91
2023-05-11T19:24:49.057Z,99123.16
2023-05-11T19:27:17.340Z,99127.21
2023-05-11T19:29:47.848Z,99128.71
2023-05-11T19:32:15.760Z,99126.00
2023-05-11T19:34:43.948Z,99125.70
2023-05-11T19:37:10.834Z,99129.58
2023-05-11T19:39:37.832Z,99129.48
2023-05-11T19:42:04.894Z,99130.52
2023-05-11T19:44:33.235Z,99124.48
2023-05-11T19:47:00.305Z,99131.77
2023-05-11T19:49:28.222Z,99129.58
2023-05-11T19:51:55.232Z,99127.80
2023-05-11T19:54:22.344Z,99133.13
2023-05-11T19:56:49.831Z,99130.95
2023-05-11T19:59:16.804Z,99134.05
2023-05-11T20:01:44.472Z,99130.74
2023-05-11T20:04:12.795Z,99132.79
2023-05-11T20:06:39.915Z,99131.02
2023-05-11T20:09:07.328Z,99138.95
2023-05-11T20:11:34.612Z,99140.73
2023-05-11T20:14:01.540Z,99144.94
2023-05-11T20:16:30.539Z,99144.61
2023-05-11T20:18:59.425Z,99145.38
2023-05-11T20:21:26.570Z,99148.48
2023-05-11T20:23:53.600Z,99150.42
2023-05-11T20:26:20.575Z,99148.59
2023-05-11T20:28:47.488Z,99145.18
2023-05-11T20:31:14.537Z,99146.34
2023-05-11T20:36:14.319Z,99149.13
2023-05-11T20:38:41.511Z,99148.24
2023-05-11T20:41:08.469Z,99151.75
2023-05-11T20:43:35.724Z,99150.48
2023-05-11T20:46:03.629Z,99149.94
2023-05-11T20:48:40.338Z,99152.41
2023-05-11T20:51:08.685Z,99152.64
2023-05-11T20:53:36.002Z,99151.48
2023-05-11T20:56:03.357Z,99152.04
2023-05-11T20:58:31.632Z,99154.69
2023-05-11T21:00:59.084Z,99156.27
2023-05-11T21:03:26.934Z,99158.35
2023-05-11T21:05:54.024Z,99158.18
2023-05-11T21:08:21.962Z,99161.89
2023-05-11T21:10:49.032Z,99158.52
2023-05-11T21:13:16.456Z,99158.73
2023-05-11T21:15:43.447Z,99160.79
2023-05-11T21:18:10.619Z,99160.73
2023-05-11T21:20:37.661Z,99161.19
2023-05-11T21:23:04.830Z,99159.31
2023-05-11T21:25:31.827Z,99159.86
2023-05-11T21:28:01.014Z,99158.89
2023-05-11T21:30:28.343Z,99158.52
2023-05-11T21:32:55.449Z,99162.56
2023-05-11T21:35:22.590Z,99166.04
2023-05-11T21:37:50.086Z,99167.06
2023-05-11T21:40:17.964Z,99168.84
2023-05-11T21:42:45.420Z,99166.90
2023-05-11T21:45:12.585Z,99171.58
2023-05-11T21:47:40.550Z,99174.27
2023-05-11T21:50:08.821Z,99173.89
2023-05-11T21:52:36.981Z,99171.17
2023-05-11T21:55:04.596Z,99170.45
2023-05-11T21:57:32.015Z,99173.52
2023-05-11T21:59:59.321Z,99172.98
2023-05-11T22:02:27.196Z,99175.83
2023-05-11T22:04:54.205Z,99178.34
2023-05-11T22:07:21.312Z,99181.20
2023-05-11T22:09:48.309Z,99176.67
2023-05-11T22:12:15.269Z,99177.14
2023-05-11T22:14:42.466Z,99176.33
2023-05-11T22:17:10.990Z,99176.70
2023-05-11T22:19:38.103Z,99175.30
2023-05-11T22:22:05.320Z,99173.50
2023-05-11T22:24:32.559Z,99176.09
2023-05-11T22:26:59.520Z,99174.40
2023-05-11T22:29:26.726Z,99178.39
2023-05-11T22:31:53.835Z,99175.16
2023-05-11T22:34:23.556Z,99178.45
2023-05-11T22:36:50.621Z,99179.10
2023-05-11T22:39:18.161Z,99180.85
2023-05-11T22:41:45.154Z,99185.23
2023-05-11T22:44:12.372Z,99183.98
2023-05-11T22:46:39.336Z,99186.96
2023-05-11T22:49:06.434Z,99183.55
2023-05-11T22:51:33.390Z,99185.71
2023-05-11T22:54:00.311Z,99185.51
2023-05-11T22:56:27.384Z,99185.55
2023-05-11T22:58:56.155Z,99185.06
2023-05-11T23:01:23.138Z,99182.83
2023-05-11T23:03:50.354Z,99183.09
2023-05-11T23:06:17.601Z,99180.73
2023-05-11T23:08:44.674Z,99178.09
2023-05-11T23:11:12.107Z,99184.05
2023-05-11T23:13:40.098Z,99184.36
2023-05-11T23:16:08.732Z,99179.83
2023-05-11T23:18:35.828Z,99182.41
2023-05-11T23:21:02.935Z,99180.51
2023-05-11T23:23:30.005Z,99180.27
2023-05-11T23:25:57.297Z,99182.83
2023-05-11T23:28:30.477Z,99185.75
2023-05-11T23:30:57.513Z,99187.23
2023-05-11T23:33:24.554Z,99185.84
2023-05-11T23:35:51.972Z,99187.72
2023-05-11T23:38:19.389Z,99184.48
2023-05-11T23:40:46.494Z,99182.88
2023-05-11T23:43:13.554Z,99184.10
2023-05-11T23:45:40.793Z,99183.90
2023-05-11T23:48:07.852Z,99187.88
2023-05-11T23:50:35.036Z,99190.97
2023-05-11T23:53:02.095Z,99186.88
2023-05-11T23:55:29.172Z,99190.08
2023-05-11T23:57:58.784Z,99191.35
